Key West, FL

12:26 AM EDT on July 14, 2014 (GMT -0400)
Key West International (KEYW) Elev 0 ft | 24.56 °N, 81.75 °W | Change Station

Current weather conditions updated 33 minutes ago

Mostly Cloudy
Mostly Cloudy
85 °F
Feels Like 94 °F
N
8
Wind Variable Wind from ESE

Today is forecast to be nearly the same temperature as yesterday.

Today
High -- | Low -- °F
--% Chance of Precip.
Yesterday
High -- | Low -- °F
Precip. -- in
6:47 AM 8:18 PM
Waning Gibbous, 96% visible
Pressure 30.09 in
Visibility 10.0 miles
Clouds Mostly Cloudy 2300 ft
Heat Index 94 °F
Dew Point 76 °F
Humidity 74%
Rainfall 0.00 in
Snow Depth Not available.
UV 0 out of 12
Pollen 3.50 out of 12
Air Quality Not available.
Flu Activity Sporadic
METAR KEYW 140353Z 12007KT 10SM BKN023 29/24 A3009 RMK AO2 SLP189 T02940244 $

More Conditions Fewer Conditions

Pressure 30.09 in
Visibility 10.0 miles
Clouds Mostly Cloudy 2300 ft
Heat Index 94 °F
Dew Point 76 °F
Humidity 74%
Rainfall 0.00 in
Snow Depth Not available.
UV 0 out of 12
Pollen 3.50 out of 12
Air Quality Not available.
Flu Activity Sporadic
METAR KEYW 140353Z 12007KT 10SM BKN023 29/24 A3009 RMK AO2 SLP189 T02940244 $

More Conditions Fewer Conditions

10-Day Weather Forecast

Almanac

Astronomy

Jul. 14, 2014 Rise Set
Actual Time 6:47 AM EDT 8:18 PM EDT
Civil Twilight 6:21 AM EDT 8:43 PM EDT
Nautical Twilight 5:51 AM EDT 9:13 PM EDT
Astronomical Twilight 5:20 AM EDT 9:45 PM EDT
Moon 10:11 PM EDT 9:07 AM EDT
Length of Visible Light 14h 21m
Length of Day
13h 31m
Tomorrow will be 0m 42s shorter.
Waning Gibbous, 96% of the Moon is Illuminated
Today
Waning Gibbous
Jul 18
Last Quarter
Jul 26
New
Aug 3
First Quarter
Aug 10
Full

Yesterday's Extremes

State Highs State Lows

Community

WunderPhotos

Upload Photos

1,733,549 photos uploaded!

Nearby

Snow Depth

Station Depth Elevation
No new snow has been reported.

Earthquake Activity

City Distance Mag. Time & Date
No recent earthquake activity has been reported nearby.
Minimum magnitude displayed is 2.5.

Coastal Water Temperatures

Place Temperature
No Stations Reporting

Nearby Weather Stations

Station Location Temp. Heat Index Dew Point Humidity Wind Precip. Elev Updated Type
Key West, FL 83.9 °F 94 °F 77 °F 80% East  at  0.0 mph 0.00 in / hr 6 ft 12:26 AM EDT Normal
Big Coppitt Key Gulfside, Key West, FL 82.0 °F 90 °F 77 °F 84% ESE  at  3.2 mph - / hr 31 ft 12:13 AM EDT Normal
Cudjoe Key, FL 84.2 °F 95 °F 78 °F 82% SE  at  12.0 mph 0.00 in / hr 16 ft 12:26 AM EDT Rapid Fire
Breezeswept Estates - Bird Lake - Ramrod, Ramrod Key, FL 84.4 °F 95 °F 78 °F 80% ESE  at  9.2 mph 0.00 in / hr 25 ft 12:26 AM EDT Rapid Fire

Show More Stations Show Fewer Stations